createdAt,value
2022-09-20T00:00:32.599Z,11.20
2022-09-20T00:03:02.362Z,11.10
2022-09-20T00:05:30.992Z,11.10
2022-09-20T00:07:59.677Z,11.30
2022-09-20T00:10:28.397Z,11.40
2022-09-20T00:12:57.120Z,11.40
2022-09-20T00:15:25.629Z,11.50
2022-09-20T00:17:54.334Z,11.60
2022-09-20T00:20:24.789Z,11.70
2022-09-20T00:22:53.504Z,11.80
2022-09-20T00:25:22.798Z,11.80
2022-09-20T00:27:51.368Z,11.90
2022-09-20T00:30:20.172Z,11.90
2022-09-20T00:32:48.783Z,11.90
2022-09-20T00:35:17.424Z,12.00
2022-09-20T00:37:47.662Z,11.90
2022-09-20T00:40:18.495Z,12.00
2022-09-20T00:42:47.582Z,11.90
2022-09-20T00:45:23.070Z,11.90
2022-09-20T00:47:56.827Z,11.90
2022-09-20T00:50:34.954Z,11.90
2022-09-20T00:53:10.396Z,11.90
2022-09-20T00:55:42.158Z,11.90
2022-09-20T00:58:11.473Z,11.90
2022-09-20T01:00:41.597Z,11.80
2022-09-20T01:03:13.775Z,11.80
2022-09-20T01:05:43.473Z,11.80
2022-09-20T01:08:13.838Z,11.80
2022-09-20T01:10:42.774Z,11.80
2022-09-20T01:13:11.931Z,11.80
2022-09-20T01:15:41.895Z,11.70
2022-09-20T01:18:11.489Z,11.70
2022-09-20T01:20:43.048Z,11.70
2022-09-20T01:23:27.733Z,11.70
2022-09-20T01:26:32.010Z,11.60
2022-09-20T01:29:09.890Z,11.60
2022-09-20T01:31:46.264Z,11.50
2022-09-20T01:34:17.820Z,11.40
2022-09-20T01:36:51.305Z,11.30
2022-09-20T01:39:27.081Z,11.20
2022-09-20T01:41:59.687Z,11.10
2022-09-20T01:44:38.315Z,10.90
2022-09-20T01:47:20.720Z,10.90
2022-09-20T01:49:57.873Z,10.90
2022-09-20T01:53:03.358Z,10.90
2022-09-20T01:55:45.820Z,10.80
2022-09-20T01:59:01.676Z,10.80
2022-09-20T02:02:07.785Z,10.90
2022-09-20T02:05:24.627Z,11.00
2022-09-20T02:08:21.570Z,11.00
2022-09-20T02:11:10.908Z,11.10
2022-09-20T02:13:59.743Z,11.10
2022-09-20T02:16:49.995Z,11.10
2022-09-20T02:19:41.037Z,11.00
2022-09-20T02:22:24.329Z,11.10
2022-09-20T02:25:03.256Z,11.20
2022-09-20T02:27:42.661Z,11.20
2022-09-20T02:30:30.929Z,11.10
2022-09-20T02:33:28.994Z,11.30
2022-09-20T02:36:14.385Z,11.20
2022-09-20T02:38:51.753Z,11.30
2022-09-20T02:41:50.295Z,11.40
2022-09-20T02:44:29.906Z,11.30
2022-09-20T02:47:07.338Z,11.30
2022-09-20T02:49:53.522Z,11.30
2022-09-20T02:52:32.140Z,11.30
2022-09-20T02:55:06.930Z,11.30
2022-09-20T02:57:53.574Z,11.30
2022-09-20T03:00:26.458Z,11.20
2022-09-20T03:03:07.711Z,11.10
2022-09-20T03:05:45.103Z,11.00
2022-09-20T03:08:29.688Z,10.70
2022-09-20T03:11:06.769Z,10.60
2022-09-20T03:13:51.859Z,10.50
2022-09-20T03:16:32.700Z,10.30
2022-09-20T03:19:14.297Z,10.30
2022-09-20T03:21:53.534Z,10.20
2022-09-20T03:24:34.938Z,10.20
2022-09-20T03:27:13.841Z,10.20
2022-09-20T03:29:56.873Z,10.20
2022-09-20T03:32:37.812Z,10.20
2022-09-20T03:35:17.813Z,10.20
2022-09-20T03:38:04.410Z,10.20
2022-09-20T03:41:11.026Z,10.30
2022-09-20T03:44:02.710Z,10.60
2022-09-20T03:46:35.018Z,10.70
2022-09-20T03:49:33.822Z,10.70
2022-09-20T03:52:14.741Z,10.70
2022-09-20T03:55:14.387Z,11.00
2022-09-20T03:57:54.705Z,11.10
2022-09-20T04:00:26.757Z,11.30
2022-09-20T04:03:14.189Z,11.40
2022-09-20T04:05:51.705Z,11.40
2022-09-20T04:08:40.191Z,11.40
2022-09-20T04:11:18.281Z,11.40
2022-09-20T04:13:57.010Z,11.40
2022-09-20T04:16:42.733Z,11.40
2022-09-20T04:19:18.448Z,11.50
2022-09-20T04:21:55.375Z,11.50
2022-09-20T04:24:30.941Z,11.50
2022-09-20T04:27:05.356Z,11.50
2022-09-20T04:29:39.461Z,11.50
2022-09-20T04:32:16.926Z,11.30
2022-09-20T04:35:07.082Z,11.20
2022-09-20T04:37:38.581Z,11.10
2022-09-20T04:40:17.711Z,11.10
2022-09-20T04:43:19.769Z,11.10
2022-09-20T04:46:21.869Z,11.20
2022-09-20T04:49:38.400Z,11.30
2022-09-20T04:52:46.063Z,11.20
2022-09-20T04:55:36.113Z,11.10
2022-09-20T04:58:53.356Z,11.30
2022-09-20T05:02:10.634Z,11.30
2022-09-20T05:05:26.024Z,11.20
2022-09-20T05:08:32.584Z,11.10
2022-09-20T05:11:47.123Z,11.10
2022-09-20T05:14:41.943Z,11.20
2022-09-20T05:17:23.546Z,11.10
2022-09-20T05:20:08.769Z,11.20
2022-09-20T05:23:10.709Z,11.40
2022-09-20T05:26:01.489Z,11.40
2022-09-20T05:28:37.640Z,11.40
2022-09-20T05:31:12.826Z,11.50
2022-09-20T05:33:50.632Z,11.50
2022-09-20T05:36:32.331Z,11.50
2022-09-20T05:39:13.738Z,11.50
2022-09-20T05:41:47.161Z,11.60
2022-09-20T05:44:31.325Z,11.60
2022-09-20T05:47:11.702Z,11.50
2022-09-20T05:49:52.029Z,11.60
2022-09-20T05:52:38.292Z,11.70
2022-09-20T05:55:22.176Z,11.70
2022-09-20T05:58:07.374Z,11.70
2022-09-20T06:00:45.091Z,11.80
2022-09-20T06:03:24.607Z,11.80
2022-09-20T06:06:03.777Z,11.80
2022-09-20T06:08:53.235Z,11.80
2022-09-20T06:11:44.476Z,12.00
2022-09-20T06:14:27.727Z,12.10
2022-09-20T06:17:06.233Z,12.10
2022-09-20T06:19:42.362Z,12.10
2022-09-20T06:22:20.413Z,12.10
2022-09-20T06:24:53.244Z,12.00
2022-09-20T06:27:28.150Z,11.90
2022-09-20T06:30:00.995Z,11.80
2022-09-20T06:32:34.747Z,11.90
2022-09-20T06:35:08.798Z,12.00
2022-09-20T06:38:03.109Z,12.00
2022-09-20T06:40:58.282Z,12.20
2022-09-20T06:43:29.378Z,12.20
2022-09-20T06:45:58.089Z,12.20
2022-09-20T06:48:31.104Z,12.20
2022-09-20T06:51:01.362Z,12.20
2022-09-20T06:53:33.267Z,12.20
2022-09-20T06:56:03.713Z,12.20
2022-09-20T06:58:32.792Z,12.30
2022-09-20T07:01:02.009Z,12.40
2022-09-20T07:03:33.058Z,12.50
2022-09-20T07:06:02.458Z,12.50
2022-09-20T07:08:31.070Z,12.40
2022-09-20T07:11:04.331Z,12.30
2022-09-20T07:13:33.273Z,12.20
2022-09-20T07:16:03.834Z,12.20
2022-09-20T07:18:34.715Z,12.20
2022-09-20T07:21:03.797Z,12.30
2022-09-20T07:23:33.062Z,12.40
2022-09-20T07:26:03.975Z,12.50
2022-09-20T07:28:36.868Z,12.60
2022-09-20T07:31:13.533Z,12.90
2022-09-20T07:33:53.187Z,13.10
2022-09-20T07:36:22.913Z,13.40
2022-09-20T07:38:59.014Z,13.70
2022-09-20T07:41:32.880Z,13.90
2022-09-20T07:44:23.315Z,14.30
2022-09-20T07:47:02.159Z,14.50
2022-09-20T07:49:38.815Z,14.60
2022-09-20T07:52:13.587Z,14.90
2022-09-20T07:54:42.965Z,15.10
2022-09-20T07:57:11.786Z,15.30
2022-09-20T07:59:40.458Z,15.40
2022-09-20T08:02:11.062Z,15.20
2022-09-20T08:04:41.066Z,15.20
2022-09-20T08:07:09.911Z,15.30
2022-09-20T08:09:38.966Z,15.40
2022-09-20T08:14:58.449Z,15.70
2022-09-20T08:17:27.257Z,15.60
2022-09-20T08:19:57.575Z,15.10
2022-09-20T08:22:26.143Z,15.00
2022-09-20T08:24:54.772Z,14.80
2022-09-20T08:27:23.437Z,14.60
2022-09-20T08:29:58.432Z,14.70
2022-09-20T08:32:32.757Z,14.80
2022-09-20T08:35:04.611Z,14.80
2022-09-20T08:37:37.337Z,14.80
2022-09-20T08:40:08.169Z,14.90
2022-09-20T08:42:43.779Z,14.90
2022-09-20T08:45:38.297Z,14.90
2022-09-20T08:48:14.398Z,15.10
2022-09-20T08:50:45.602Z,15.30
2022-09-20T08:53:21.414Z,15.70
2022-09-20T08:55:50.942Z,16.10
2022-09-20T08:58:22.432Z,16.50
2022-09-20T09:00:51.996Z,16.80
2022-09-20T09:03:21.549Z,16.50
2022-09-20T09:05:55.589Z,16.60
2022-09-20T09:08:38.203Z,16.60
2022-09-20T09:11:10.762Z,16.70
2022-09-20T09:14:11.673Z,16.90
2022-09-20T09:17:02.767Z,16.80
2022-09-20T09:19:48.895Z,16.60
2022-09-20T09:22:36.341Z,16.60
2022-09-20T09:25:54.382Z,16.60
2022-09-20T09:28:41.782Z,16.70
2022-09-20T09:31:16.455Z,16.70
2022-09-20T09:34:35.219Z,16.70
2022-09-20T09:36:47.392Z,16.60
2022-09-20T09:39:24.824Z,16.90
2022-09-20T09:41:59.235Z,17.00
2022-09-20T09:44:36.485Z,17.10
2022-09-20T09:47:30.044Z,17.10
2022-09-20T09:50:03.901Z,16.90
2022-09-20T09:52:36.712Z,17.00
2022-09-20T09:55:09.311Z,17.10
2022-09-20T09:57:58.705Z,16.70
2022-09-20T10:00:34.702Z,16.40
2022-09-20T10:03:24.609Z,16.00
2022-09-20T10:06:09.116Z,15.90
2022-09-20T10:08:47.712Z,15.60
2022-09-20T10:11:30.804Z,15.20
2022-09-20T10:14:10.498Z,14.80
2022-09-20T10:16:57.755Z,14.50
2022-09-20T10:19:42.400Z,14.30
2022-09-20T10:22:19.737Z,14.50
2022-09-20T10:24:58.705Z,14.80
2022-09-20T10:27:48.538Z,15.20
2022-09-20T10:30:26.357Z,16.10
2022-09-20T10:33:16.857Z,16.50
2022-09-20T10:36:07.263Z,16.60
2022-09-20T10:38:42.733Z,17.10
2022-09-20T10:42:02.874Z,17.50
2022-09-20T10:45:01.736Z,17.60
2022-09-20T10:47:36.829Z,18.00
2022-09-20T10:50:18.677Z,18.40
2022-09-20T10:53:04.146Z,18.30
2022-09-20T10:55:45.803Z,18.40
2022-09-20T10:59:02.275Z,18.30
2022-09-20T11:01:41.856Z,18.10
2022-09-20T11:04:35.968Z,18.10
2022-09-20T11:07:15.685Z,18.20
2022-09-20T11:09:50.280Z,18.30
2022-09-20T11:12:27.916Z,18.10
2022-09-20T11:15:05.677Z,17.90
2022-09-20T11:17:42.773Z,17.70
2022-09-20T11:20:25.134Z,17.60
2022-09-20T11:23:00.878Z,18.30
2022-09-20T11:25:40.927Z,19.20
2022-09-20T11:28:33.430Z,20.20
2022-09-20T11:31:08.720Z,20.40
2022-09-20T11:36:26.954Z,22.40
2022-09-20T11:39:00.723Z,22.10
2022-09-20T11:41:31.702Z,20.90
2022-09-20T11:44:04.466Z,19.40
2022-09-20T11:46:37.989Z,18.40
2022-09-20T11:49:13.630Z,17.50
2022-09-20T11:52:20.330Z,17.00
2022-09-20T11:55:22.826Z,16.80
2022-09-20T11:58:04.953Z,16.90
2022-09-20T12:00:37.746Z,17.10
2022-09-20T12:03:14.719Z,17.50
2022-09-20T12:05:44.417Z,17.90
2022-09-20T12:08:27.607Z,18.60
2022-09-20T12:11:04.552Z,19.40
2022-09-20T12:13:37.175Z,19.60
2022-09-20T12:16:09.668Z,19.60
2022-09-20T12:18:48.480Z,19.70
2022-09-20T12:21:21.495Z,19.60
2022-09-20T12:24:22.384Z,19.70
2022-09-20T12:26:56.964Z,19.60
2022-09-20T12:29:55.710Z,19.50
2022-09-20T12:32:54.621Z,19.90
2022-09-20T12:35:58.033Z,20.30
2022-09-20T12:38:48.436Z,19.70
2022-09-20T12:41:27.801Z,19.60
2022-09-20T12:44:08.804Z,19.90
2022-09-20T12:46:46.099Z,20.50
2022-09-20T12:49:54.348Z,21.00
2022-09-20T12:52:55.569Z,21.60
2022-09-20T12:55:41.063Z,21.50
2022-09-20T12:58:39.584Z,20.60
2022-09-20T13:01:34.477Z,20.10
2022-09-20T13:04:56.182Z,20.00
2022-09-20T13:07:47.843Z,20.10
2022-09-20T13:10:41.589Z,20.40
2022-09-20T13:13:23.479Z,21.20
2022-09-20T13:16:11.026Z,22.00
2022-09-20T13:18:42.353Z,21.40
2022-09-20T13:21:14.517Z,21.90
2022-09-20T13:23:51.018Z,22.40
2022-09-20T13:26:27.741Z,21.80
2022-09-20T13:28:59.535Z,20.90
2022-09-20T13:31:31.314Z,20.20
2022-09-20T13:34:22.711Z,20.40
2022-09-20T13:36:56.859Z,20.40
2022-09-20T13:39:37.423Z,21.10
2022-09-20T13:42:16.519Z,22.50
2022-09-20T13:44:45.950Z,23.00
2022-09-20T13:47:27.701Z,23.10
2022-09-20T13:50:05.800Z,23.70
2022-09-20T13:52:56.907Z,24.60
2022-09-20T13:55:36.502Z,25.50
2022-09-20T13:58:11.343Z,26.00
2022-09-20T14:00:49.930Z,26.90
2022-09-20T14:03:21.774Z,27.40
2022-09-20T14:07:07.346Z,27.30
2022-09-20T14:09:37.009Z,25.80
2022-09-20T14:12:08.034Z,25.30
2022-09-20T14:14:37.206Z,23.80
2022-09-20T14:17:09.840Z,22.80
2022-09-20T14:19:46.458Z,22.00
2022-09-20T14:22:22.533Z,22.20
2022-09-20T14:25:04.820Z,22.10
2022-09-20T14:27:33.663Z,21.20
2022-09-20T14:30:04.333Z,20.80
2022-09-20T14:32:48.877Z,20.70
2022-09-20T14:35:32.662Z,21.20
2022-09-20T14:38:10.546Z,20.50
2022-09-20T14:40:45.066Z,19.90
2022-09-20T14:43:31.827Z,19.70
2022-09-20T14:46:03.631Z,19.30
2022-09-20T14:48:41.444Z,18.80
2022-09-20T14:51:23.512Z,18.50
2022-09-20T14:54:15.259Z,18.10
2022-09-20T14:56:49.514Z,17.80
2022-09-20T14:59:26.066Z,17.70
2022-09-20T15:02:03.176Z,17.40
2022-09-20T15:04:33.120Z,17.40
2022-09-20T15:07:07.663Z,17.50
2022-09-20T15:09:37.904Z,17.60
2022-09-20T15:12:08.768Z,17.80
2022-09-20T15:14:38.190Z,17.80
2022-09-20T15:17:08.429Z,17.60
2022-09-20T15:19:37.213Z,17.70
2022-09-20T15:22:06.064Z,17.70
2022-09-20T15:24:34.734Z,17.50
2022-09-20T15:27:05.277Z,17.60
2022-09-20T15:29:34.395Z,17.50
2022-09-20T15:32:04.783Z,17.60
2022-09-20T15:34:33.917Z,17.80
2022-09-20T15:37:05.583Z,17.90
2022-09-20T15:39:34.753Z,17.90
2022-09-20T15:42:05.556Z,17.80
2022-09-20T15:44:34.570Z,17.80
2022-09-20T15:47:04.591Z,17.80
2022-09-20T15:49:33.554Z,17.90
2022-09-20T15:52:02.547Z,18.70
2022-09-20T15:54:31.258Z,18.80
2022-09-20T15:57:00.598Z,19.60
2022-09-20T15:59:31.420Z,20.80
2022-09-20T16:02:00.390Z,21.90
2022-09-20T16:04:30.365Z,22.10
2022-09-20T16:06:59.397Z,22.50
2022-09-20T16:09:28.879Z,22.90
2022-09-20T16:11:59.629Z,22.90
2022-09-20T16:14:42.589Z,23.60
2022-09-20T16:17:55.702Z,23.50
2022-09-20T16:20:24.932Z,22.90
2022-09-20T16:22:54.838Z,23.10
2022-09-20T16:25:23.772Z,22.40
2022-09-20T16:27:57.261Z,21.90
2022-09-20T16:30:37.729Z,21.30
2022-09-20T16:33:07.219Z,21.00
2022-09-20T16:35:39.107Z,20.90
2022-09-20T16:38:10.611Z,21.00
2022-09-20T16:40:39.567Z,20.50
2022-09-20T16:43:09.140Z,20.60
2022-09-20T16:45:44.786Z,20.60
2022-09-20T16:48:17.401Z,20.90
2022-09-20T16:50:56.075Z,20.90
2022-09-20T16:53:25.252Z,20.60
2022-09-20T16:55:55.944Z,19.80
2022-09-20T16:58:30.532Z,19.10
2022-09-20T17:01:23.089Z,18.60
2022-09-20T17:03:57.131Z,18.10
2022-09-20T17:06:27.403Z,17.70
2022-09-20T17:08:59.302Z,17.50
2022-09-20T17:11:30.309Z,17.40
2022-09-20T17:14:00.415Z,17.40
2022-09-20T17:16:34.132Z,17.20
2022-09-20T17:19:04.545Z,17.00
2022-09-20T17:21:33.164Z,16.80
2022-09-20T17:24:02.310Z,16.50
2022-09-20T17:26:33.620Z,16.40
2022-09-20T17:29:04.069Z,16.20
2022-09-20T17:31:36.800Z,16.10
2022-09-20T17:34:07.976Z,15.90
2022-09-20T17:39:54.043Z,15.60
2022-09-20T17:42:25.469Z,15.40
2022-09-20T17:44:54.328Z,15.10
2022-09-20T17:47:42.210Z,14.90
2022-09-20T17:50:15.225Z,14.70
2022-09-20T17:52:44.878Z,14.40
2022-09-20T17:55:13.875Z,14.30
2022-09-20T17:57:45.047Z,14.20
2022-09-20T18:00:15.300Z,14.00
2022-09-20T18:02:48.609Z,13.90
2022-09-20T18:05:17.908Z,13.80
2022-09-20T18:07:49.428Z,13.60
2022-09-20T18:10:18.834Z,13.10
2022-09-20T18:12:48.175Z,13.10
2022-09-20T18:15:24.428Z,12.90
2022-09-20T18:17:56.248Z,12.60
2022-09-20T18:20:29.304Z,12.30
2022-09-20T18:22:58.807Z,12.10
2022-09-20T18:25:27.943Z,12.00
2022-09-20T18:28:00.681Z,11.80
2022-09-20T18:30:37.287Z,11.90
2022-09-20T18:33:09.507Z,11.60
2022-09-20T18:35:43.598Z,11.50
2022-09-20T18:38:19.336Z,11.30
2022-09-20T18:41:00.962Z,11.10
2022-09-20T18:43:39.696Z,11.10
2022-09-20T18:46:16.756Z,11.10
2022-09-20T18:48:53.345Z,11.00
2022-09-20T18:51:24.554Z,11.00
2022-09-20T18:54:06.967Z,11.00
2022-09-20T18:56:42.679Z,10.90
2022-09-20T18:59:17.099Z,10.80
2022-09-20T19:02:22.237Z,10.70
2022-09-20T19:05:26.443Z,10.70
2022-09-20T19:16:42.376Z,10.50
2022-09-20T19:19:59.049Z,10.40
2022-09-20T19:23:16.206Z,10.30
2022-09-20T19:29:36.344Z,9.90
2022-09-20T19:32:36.675Z,9.70
2022-09-20T19:35:38.552Z,9.60
2022-09-20T19:41:53.774Z,9.50
2022-09-20T19:45:01.077Z,9.50
2022-09-20T19:48:44.534Z,9.40
2022-09-20T19:52:19.428Z,9.40
2022-09-20T19:55:42.080Z,9.50
2022-09-20T19:58:43.183Z,9.40
2022-09-20T20:01:19.195Z,9.40
2022-09-20T20:03:59.273Z,9.20
2022-09-20T20:07:06.288Z,9.10
2022-09-20T20:09:50.834Z,9.20
2022-09-20T20:12:33.919Z,9.30
2022-09-20T20:15:18.743Z,9.20
2022-09-20T20:18:05.900Z,9.20
2022-09-20T20:20:44.208Z,9.20
2022-09-20T20:23:41.989Z,9.20
2022-09-20T20:26:14.705Z,9.30
2022-09-20T20:28:53.175Z,9.30
2022-09-20T20:31:26.187Z,9.50
2022-09-20T20:33:55.799Z,9.60
2022-09-20T20:36:25.547Z,9.80
2022-09-20T20:38:56.136Z,9.90
2022-09-20T20:41:25.242Z,9.90
2022-09-20T20:44:05.576Z,9.80
2022-09-20T20:46:36.286Z,9.80
2022-09-20T20:49:06.098Z,9.80
2022-09-20T20:51:35.230Z,10.00
2022-09-20T20:54:06.504Z,10.20
2022-09-20T20:56:35.757Z,10.20
2022-09-20T20:59:07.719Z,10.20
2022-09-20T21:01:38.854Z,10.30
2022-09-20T21:04:11.700Z,10.40
2022-09-20T21:06:42.329Z,10.30
2022-09-20T21:09:12.641Z,10.20
2022-09-20T21:11:43.675Z,10.20
2022-09-20T21:14:16.357Z,10.20
2022-09-20T21:16:46.484Z,10.10
2022-09-20T21:19:17.250Z,10.10
2022-09-20T21:21:48.881Z,10.20
2022-09-20T21:24:18.885Z,10.30
2022-09-20T21:26:48.838Z,10.20
2022-09-20T21:29:20.474Z,10.50
2022-09-20T21:31:50.366Z,10.20
2022-09-20T21:34:20.214Z,10.00
2022-09-20T21:36:50.612Z,9.80
2022-09-20T21:39:20.504Z,9.60
2022-09-20T21:41:49.454Z,9.40
2022-09-20T21:44:20.693Z,9.30
2022-09-20T21:46:50.257Z,9.20
2022-09-20T21:49:19.135Z,9.10
2022-09-20T21:51:47.882Z,9.10
2022-09-20T21:54:16.581Z,9.20
2022-09-20T21:56:45.546Z,9.30
2022-09-20T21:59:14.190Z,9.20
2022-09-20T22:01:44.569Z,9.00
2022-09-20T22:04:14.141Z,9.00
2022-09-20T22:06:44.540Z,8.90
2022-09-20T22:09:14.876Z,8.80
2022-09-20T22:11:45.445Z,8.70
2022-09-20T22:14:19.850Z,8.60
2022-09-20T22:16:56.914Z,8.60
2022-09-20T22:19:26.312Z,8.50
2022-09-20T22:21:56.061Z,8.30
2022-09-20T22:24:25.350Z,8.10
2022-09-20T22:26:55.526Z,8.00
2022-09-20T22:29:24.554Z,8.00
2022-09-20T22:31:57.281Z,8.00
2022-09-20T22:34:26.634Z,7.90
2022-09-20T22:36:55.827Z,7.80
2022-09-20T22:39:24.866Z,7.70
2022-09-20T22:41:56.938Z,7.80
2022-09-20T22:44:25.652Z,7.80
2022-09-20T22:46:55.822Z,7.80
2022-09-20T22:49:24.552Z,7.90
2022-09-20T22:51:53.092Z,7.70
2022-09-20T22:54:21.572Z,7.50
2022-09-20T22:56:50.048Z,7.50
2022-09-20T22:59:18.726Z,7.50
2022-09-20T23:01:49.172Z,7.40
2022-09-20T23:04:23.752Z,7.30
2022-09-20T23:06:55.402Z,7.30
2022-09-20T23:09:25.690Z,7.50
2022-09-20T23:11:54.633Z,7.40
2022-09-20T23:14:24.240Z,7.40
2022-09-20T23:16:53.060Z,7.30
2022-09-20T23:19:23.350Z,7.30
2022-09-20T23:21:52.108Z,7.30
2022-09-20T23:24:20.682Z,7.20
2022-09-20T23:26:49.364Z,7.30
2022-09-20T23:29:18.612Z,7.20
2022-09-20T23:31:48.734Z,7.40
2022-09-20T23:34:18.758Z,7.40
2022-09-20T23:36:49.066Z,7.40
2022-09-20T23:39:18.365Z,7.30
2022-09-20T23:41:51.013Z,7.40
2022-09-20T23:44:20.884Z,7.50
2022-09-20T23:46:50.125Z,7.50
2022-09-20T23:49:18.962Z,7.50
2022-09-20T23:51:49.042Z,7.60
2022-09-20T23:54:18.021Z,7.80
2022-09-20T23:56:46.794Z,7.70
2022-09-20T23:59:15.701Z,7.70
